createdAt,value
2019-02-19T00:03:04.202Z,17.70
2019-02-19T00:06:10.634Z,17.67
2019-02-19T00:09:17.016Z,16.97
2019-02-19T00:12:23.380Z,18.37
2019-02-19T00:15:29.743Z,18.73
2019-02-19T00:18:36.064Z,15.93
2019-02-19T00:21:42.507Z,17.20
2019-02-19T00:24:48.934Z,18.27
2019-02-19T00:27:55.229Z,17.70
2019-02-19T00:31:01.687Z,17.77
2019-02-19T00:34:08.031Z,17.30
2019-02-19T00:37:15.466Z,17.80
2019-02-19T00:40:21.796Z,18.10
2019-02-19T00:43:32.158Z,17.33
2019-02-19T00:46:38.435Z,17.57
2019-02-19T00:49:44.714Z,16.63
2019-02-19T00:52:51.129Z,17.97
2019-02-19T00:55:57.475Z,16.70
2019-02-19T00:59:03.903Z,17.10
2019-02-19T01:02:10.253Z,17.53
2019-02-19T01:05:16.616Z,16.17
2019-02-19T01:08:23.088Z,16.95
2019-02-19T01:11:29.592Z,17.20
2019-02-19T01:14:35.957Z,17.00
2019-02-19T01:17:42.407Z,16.50
2019-02-19T01:20:48.749Z,16.47
2019-02-19T01:23:55.248Z,18.37
2019-02-19T01:27:01.518Z,16.10
2019-02-19T01:30:10.568Z,16.47
2019-02-19T01:33:16.835Z,15.87
2019-02-19T01:36:23.265Z,16.60
2019-02-19T01:39:29.537Z,15.17
2019-02-19T01:42:35.891Z,15.57
2019-02-19T01:45:42.383Z,16.23
2019-02-19T01:48:48.650Z,16.43
2019-02-19T01:51:54.947Z,16.07
2019-02-19T01:55:01.271Z,15.60
2019-02-19T01:58:07.635Z,15.23
2019-02-19T02:01:14.105Z,15.43
2019-02-19T02:04:20.513Z,14.93
2019-02-19T02:07:26.813Z,15.83
2019-02-19T02:10:33.154Z,15.50
2019-02-19T02:13:39.497Z,15.83
2019-02-19T02:16:45.765Z,15.67
2019-02-19T02:19:52.035Z,15.27
2019-02-19T02:22:58.642Z,15.83
2019-02-19T02:26:05.022Z,16.27
2019-02-19T02:29:11.277Z,16.17
2019-02-19T02:32:17.563Z,16.60
2019-02-19T02:35:23.934Z,16.43
2019-02-19T02:38:30.177Z,17.27
2019-02-19T02:41:36.422Z,16.43
2019-02-19T02:44:42.688Z,16.57
2019-02-19T02:47:49.085Z,17.87
2019-02-19T02:50:55.350Z,16.50
2019-02-19T02:54:01.651Z,17.07
2019-02-19T02:57:08.076Z,17.57
2019-02-19T03:00:14.433Z,17.17
2019-02-19T03:03:20.742Z,18.90
2019-02-19T03:06:36.615Z,17.45
2019-02-19T03:09:43.028Z,17.40
2019-02-19T03:12:49.347Z,18.47
2019-02-19T03:16:02.237Z,18.70
2019-02-19T03:19:04.802Z,18.50
2019-02-19T03:22:11.146Z,20.50
2019-02-19T03:25:17.517Z,18.73
2019-02-19T03:28:23.881Z,17.90
2019-02-19T03:31:30.252Z,19.03
2019-02-19T03:34:36.567Z,19.00
2019-02-19T03:37:42.921Z,18.20
2019-02-19T03:40:49.265Z,19.33
2019-02-19T03:43:56.677Z,20.43
2019-02-19T03:47:02.967Z,21.80
2019-02-19T03:50:09.457Z,20.63
2019-02-19T03:53:15.720Z,21.27
2019-02-19T03:56:22.185Z,18.75
2019-02-19T03:59:28.551Z,20.03
2019-02-19T04:02:34.822Z,20.93
2019-02-19T04:05:41.224Z,20.43
2019-02-19T04:08:48.397Z,21.33
2019-02-19T04:11:54.753Z,19.23
2019-02-19T04:15:01.100Z,20.73
2019-02-19T04:18:07.526Z,21.53
2019-02-19T04:21:13.882Z,20.60
2019-02-19T04:24:20.179Z,16.47
2019-02-19T04:27:26.447Z,21.63
2019-02-19T04:30:32.785Z,21.13
2019-02-19T04:33:39.154Z,23.63
2019-02-19T04:36:45.441Z,18.87
2019-02-19T04:39:51.783Z,19.13
2019-02-19T04:42:58.167Z,22.20
2019-02-19T04:46:04.491Z,21.60
2019-02-19T04:49:10.770Z,21.07
2019-02-19T04:52:17.260Z,22.23
2019-02-19T04:55:23.782Z,22.73
2019-02-19T04:58:30.151Z,20.80
2019-02-19T05:01:36.504Z,21.63
2019-02-19T05:04:42.771Z,19.57
2019-02-19T05:07:49.108Z,22.03
2019-02-19T05:10:55.475Z,19.53
2019-02-19T05:14:01.962Z,20.70
2019-02-19T05:17:08.230Z,19.90
2019-02-19T05:20:14.485Z,20.63
2019-02-19T05:23:20.867Z,21.43
2019-02-19T05:26:27.253Z,20.80
2019-02-19T05:29:34.036Z,21.53
2019-02-19T05:32:40.331Z,20.10
2019-02-19T05:35:46.712Z,23.63
2019-02-19T05:38:53.173Z,22.73
2019-02-19T05:41:59.537Z,22.77
2019-02-19T05:45:06.321Z,22.60
2019-02-19T05:48:13.684Z,23.17
2019-02-19T05:51:20.039Z,22.53
2019-02-19T05:54:26.490Z,22.73
2019-02-19T05:57:32.845Z,19.27
2019-02-19T06:00:39.192Z,22.67
2019-02-19T06:03:45.553Z,23.43
2019-02-19T06:06:52.068Z,23.70
2019-02-19T06:09:58.474Z,22.57
2019-02-19T06:13:04.819Z,21.90
2019-02-19T06:16:11.247Z,21.90
2019-02-19T06:19:17.595Z,23.10
2019-02-19T06:22:24.044Z,23.07
2019-02-19T06:25:30.403Z,23.83
2019-02-19T06:28:36.666Z,22.80
2019-02-19T06:31:43.098Z,25.10
2019-02-19T06:34:49.368Z,22.33
2019-02-19T06:37:55.769Z,22.53
2019-02-19T06:41:02.215Z,23.53
2019-02-19T06:44:08.557Z,22.03
2019-02-19T06:47:15.288Z,24.37
2019-02-19T06:50:22.030Z,22.73
2019-02-19T06:53:28.295Z,25.60
2019-02-19T06:56:34.831Z,26.17
2019-02-19T06:59:41.174Z,25.27
2019-02-19T07:03:01.681Z,25.70
2019-02-19T07:06:08.154Z,23.53
2019-02-19T07:09:14.535Z,24.50
2019-02-19T07:12:20.973Z,23.37
2019-02-19T07:15:27.305Z,24.57
2019-02-19T07:18:33.771Z,23.00
2019-02-19T07:21:40.141Z,24.77
2019-02-19T07:24:46.517Z,24.10
2019-02-19T07:27:52.788Z,25.33
2019-02-19T07:30:59.158Z,24.33
2019-02-19T07:34:05.516Z,24.25
2019-02-19T07:37:11.870Z,24.90
2019-02-19T07:40:18.158Z,23.87
2019-02-19T07:43:24.584Z,22.20
2019-02-19T07:46:31.047Z,23.87
2019-02-19T07:49:37.362Z,22.50
2019-02-19T07:52:43.700Z,22.20
2019-02-19T07:55:50.172Z,24.73
2019-02-19T07:58:56.570Z,23.10
2019-02-19T08:02:03.129Z,22.87
2019-02-19T08:05:09.509Z,21.63
2019-02-19T08:08:15.888Z,22.70
2019-02-19T08:11:22.348Z,23.27
2019-02-19T08:14:28.700Z,23.03
2019-02-19T08:17:35.164Z,23.57
2019-02-19T08:20:41.429Z,23.27
2019-02-19T08:23:48.860Z,22.27
2019-02-19T08:26:55.152Z,21.37
2019-02-19T08:30:01.547Z,18.13
2019-02-19T08:33:07.955Z,21.87
2019-02-19T08:36:14.296Z,19.70
2019-02-19T08:39:20.790Z,21.10
2019-02-19T08:42:27.112Z,18.77
2019-02-19T08:45:33.460Z,21.40
2019-02-19T08:48:39.883Z,19.40
2019-02-19T08:51:46.277Z,21.03
2019-02-19T08:54:52.763Z,20.33
2019-02-19T08:57:59.136Z,20.10
2019-02-19T09:01:05.554Z,20.70
2019-02-19T09:04:11.838Z,19.77
2019-02-19T09:07:18.105Z,17.87
2019-02-19T09:10:24.343Z,18.73
2019-02-19T09:13:30.724Z,17.93
2019-02-19T09:16:37.090Z,18.27
2019-02-19T09:19:43.461Z,16.67
2019-02-19T09:22:50.692Z,17.17
2019-02-19T09:25:57.105Z,16.50
2019-02-19T09:29:03.534Z,17.40
2019-02-19T09:32:09.901Z,15.93
2019-02-19T09:35:16.274Z,16.27
2019-02-19T09:38:22.679Z,16.57
2019-02-19T09:41:29.059Z,15.72
2019-02-19T09:44:35.397Z,17.00
2019-02-19T09:47:41.813Z,16.33
2019-02-19T09:50:48.150Z,16.47
2019-02-19T09:53:54.567Z,17.15
2019-02-19T09:57:01.004Z,15.27
2019-02-19T10:00:09.016Z,14.53
2019-02-19T10:03:15.487Z,15.73
2019-02-19T10:06:21.975Z,15.63
2019-02-19T10:09:28.262Z,15.33
2019-02-19T10:12:34.649Z,14.20
2019-02-19T10:15:40.932Z,14.37
2019-02-19T10:18:48.241Z,13.58
2019-02-19T10:21:54.543Z,15.17
2019-02-19T10:25:01.135Z,13.60
2019-02-19T10:28:08.632Z,13.07
2019-02-19T10:31:15.119Z,13.20
2019-02-19T10:34:24.660Z,12.10
2019-02-19T10:37:31.169Z,13.33
2019-02-19T10:40:37.436Z,12.93
2019-02-19T10:43:43.821Z,12.77
2019-02-19T10:46:50.173Z,12.07
2019-02-19T10:49:56.600Z,12.93
2019-02-19T10:53:03.036Z,12.82
2019-02-19T10:56:09.442Z,12.13
2019-02-19T10:59:15.968Z,11.23
2019-02-19T11:02:22.475Z,13.13
2019-02-19T11:05:30.164Z,12.00
2019-02-19T11:08:36.441Z,11.43
2019-02-19T11:11:42.823Z,11.07
2019-02-19T11:14:49.174Z,10.33
2019-02-19T11:17:55.517Z,10.60
2019-02-19T11:21:01.959Z,10.77
2019-02-19T11:24:08.302Z,10.53
2019-02-19T11:27:14.662Z,11.33
2019-02-19T11:30:21.152Z,10.23
2019-02-19T11:33:27.714Z,11.90
2019-02-19T11:36:34.072Z,11.57
2019-02-19T11:39:40.349Z,11.27
2019-02-19T11:42:46.610Z,10.37
2019-02-19T11:45:52.905Z,9.60
2019-02-19T11:48:59.365Z,11.10
2019-02-19T11:52:05.686Z,10.97
2019-02-19T11:55:12.877Z,10.90
2019-02-19T11:58:20.811Z,11.43
2019-02-19T12:01:27.282Z,10.08
2019-02-19T12:04:33.534Z,10.77
2019-02-19T12:07:40.004Z,9.13
2019-02-19T12:10:46.255Z,9.67
2019-02-19T12:13:52.648Z,10.80
2019-02-19T12:16:59.045Z,9.90
2019-02-19T12:20:05.527Z,11.13
2019-02-19T12:23:12.260Z,10.33
2019-02-19T12:26:18.715Z,10.07
2019-02-19T12:29:25.082Z,9.37
2019-02-19T12:32:31.431Z,10.30
2019-02-19T12:35:37.706Z,9.37
2019-02-19T12:38:44.070Z,8.98
2019-02-19T12:41:50.399Z,8.93
2019-02-19T12:44:56.812Z,9.93
2019-02-19T12:48:03.222Z,9.13
2019-02-19T12:51:09.614Z,8.67
2019-02-19T12:54:16.014Z,8.57
2019-02-19T12:57:22.350Z,8.83
2019-02-19T13:00:28.715Z,8.33
2019-02-19T13:03:35.071Z,8.33
2019-02-19T13:06:41.418Z,8.30
2019-02-19T13:09:47.787Z,7.33
2019-02-19T13:12:54.135Z,7.70
2019-02-19T13:16:00.471Z,7.87
2019-02-19T13:19:06.888Z,7.05
2019-02-19T13:22:13.158Z,7.77
2019-02-19T13:25:19.506Z,7.40
2019-02-19T13:28:25.826Z,8.43
2019-02-19T13:31:32.255Z,7.58
2019-02-19T13:34:38.571Z,7.43
2019-02-19T13:37:44.850Z,7.20
2019-02-19T13:40:51.136Z,7.43
2019-02-19T13:43:57.630Z,6.72
2019-02-19T13:47:24.015Z,8.07
2019-02-19T13:50:37.672Z,8.10
2019-02-19T13:53:52.306Z,7.50
2019-02-19T13:57:00.018Z,7.53
2019-02-19T14:00:22.222Z,7.80
2019-02-19T14:03:28.696Z,8.20
2019-02-19T14:06:35.095Z,8.43
2019-02-19T14:09:41.351Z,8.80
2019-02-19T14:12:47.816Z,8.70
2019-02-19T14:16:21.937Z,8.43
2019-02-19T14:19:47.196Z,7.57
2019-02-19T14:23:17.826Z,7.83
2019-02-19T14:26:49.389Z,7.20
2019-02-19T14:30:20.064Z,7.33
2019-02-19T14:33:49.227Z,7.13
2019-02-19T14:37:13.602Z,6.83
2019-02-19T14:40:41.707Z,7.10
2019-02-19T14:44:08.532Z,6.90
2019-02-19T14:47:46.160Z,6.93
2019-02-19T14:51:05.589Z,6.80
2019-02-19T14:54:33.918Z,6.17
2019-02-19T14:57:52.558Z,5.60
2019-02-19T15:01:17.794Z,6.10
2019-02-19T15:04:41.649Z,6.20
2019-02-19T15:08:05.724Z,6.40
2019-02-19T15:11:29.660Z,6.03
2019-02-19T15:14:57.826Z,5.03
2019-02-19T15:18:29.053Z,4.83
2019-02-19T15:21:54.351Z,4.93
2019-02-19T15:25:22.686Z,4.77
2019-02-19T15:29:03.179Z,4.27
2019-02-19T15:32:34.339Z,4.33
2019-02-19T15:35:58.299Z,4.80
2019-02-19T15:39:34.602Z,3.98
2019-02-19T15:43:06.083Z,3.93
2019-02-19T15:46:30.455Z,3.83
2019-02-19T15:49:48.878Z,3.77
2019-02-19T15:53:20.144Z,3.47
2019-02-19T15:56:54.553Z,3.47
2019-02-19T16:00:18.625Z,3.17
2019-02-19T16:03:43.290Z,2.90
2019-02-19T16:06:59.954Z,3.33
2019-02-19T16:10:25.057Z,3.67
2019-02-19T16:13:50.391Z,3.30
2019-02-19T16:17:24.711Z,3.23
2019-02-19T16:20:46.647Z,3.43
2019-02-19T16:24:18.177Z,3.50
2019-02-19T16:27:42.129Z,3.60
2019-02-19T16:31:16.703Z,3.90
2019-02-19T16:34:51.219Z,3.87
2019-02-19T16:38:09.401Z,3.77
2019-02-19T16:41:30.504Z,3.60
2019-02-19T16:44:55.745Z,4.00
2019-02-19T16:48:15.817Z,3.30
2019-02-19T16:51:41.242Z,3.10
2019-02-19T16:54:54.567Z,3.33
2019-02-19T16:58:10.767Z,2.97
2019-02-19T17:01:33.182Z,3.13
2019-02-19T17:05:10.787Z,2.90
2019-02-19T17:08:34.276Z,2.90
2019-02-19T17:11:58.039Z,2.87
2019-02-19T17:15:15.390Z,2.60
2019-02-19T17:18:51.449Z,2.90
2019-02-19T17:22:10.052Z,2.40
2019-02-19T17:25:38.206Z,2.60
2019-02-19T17:28:52.128Z,2.23
2019-02-19T17:32:17.431Z,2.73
2019-02-19T17:35:41.662Z,2.60
2019-02-19T17:39:13.696Z,2.40
2019-02-19T17:42:28.865Z,1.97
2019-02-19T17:45:54.192Z,2.37
2019-02-19T17:49:12.230Z,2.70
2019-02-19T17:52:38.347Z,2.40
2019-02-19T17:55:54.671Z,2.20
2019-02-19T17:59:15.868Z,2.10
2019-02-19T18:02:31.044Z,2.50
2019-02-19T18:05:44.280Z,1.93
2019-02-19T18:09:12.778Z,2.07
2019-02-19T18:12:43.893Z,2.00
2019-02-19T18:16:12.015Z,2.10
2019-02-19T18:19:18.514Z,1.90
2019-02-19T18:22:24.821Z,1.90
2019-02-19T18:25:31.145Z,1.70
2019-02-19T18:28:37.421Z,1.63
2019-02-19T18:31:43.768Z,1.67
2019-02-19T18:34:50.024Z,1.40
2019-02-19T18:37:56.344Z,1.53
2019-02-19T18:41:02.671Z,1.83
2019-02-19T18:44:09.081Z,1.87
2019-02-19T18:47:15.429Z,1.67
2019-02-19T18:50:21.902Z,1.93
2019-02-19T18:53:28.380Z,1.60
2019-02-19T18:56:34.711Z,1.40
2019-02-19T18:59:41.268Z,1.77
2019-02-19T19:02:47.724Z,1.60
2019-02-19T19:05:54.074Z,1.90
2019-02-19T19:09:00.628Z,2.08
2019-02-19T19:12:08.472Z,1.87
2019-02-19T19:15:14.864Z,1.63
2019-02-19T19:18:21.300Z,1.50
2019-02-19T19:21:27.789Z,1.95
2019-02-19T19:24:34.110Z,2.00
2019-02-19T19:27:40.445Z,2.00
2019-02-19T19:30:46.760Z,2.10
2019-02-19T19:33:53.125Z,2.25
2019-02-19T19:36:59.439Z,1.70
2019-02-19T19:40:06.117Z,2.03
2019-02-19T19:43:12.386Z,1.77
2019-02-19T19:46:18.822Z,2.33
2019-02-19T19:49:25.189Z,1.97
2019-02-19T19:52:31.500Z,2.03
2019-02-19T19:55:38.837Z,2.00
2019-02-19T19:58:45.150Z,1.70
2019-02-19T20:01:51.483Z,1.43
2019-02-19T20:04:58.803Z,1.80
2019-02-19T20:08:05.198Z,2.00
2019-02-19T20:11:11.564Z,1.77
2019-02-19T20:14:18.029Z,1.60
2019-02-19T20:17:24.373Z,1.80
2019-02-19T20:20:30.742Z,1.97
2019-02-19T20:23:37.274Z,1.63
2019-02-19T20:26:43.639Z,1.60
2019-02-19T20:29:50.061Z,1.63
2019-02-19T20:32:56.445Z,1.87
2019-02-19T20:36:02.898Z,1.67
2019-02-19T20:39:09.415Z,1.70
2019-02-19T20:42:17.183Z,1.67
2019-02-19T20:45:24.406Z,1.73
2019-02-19T20:48:33.851Z,1.43
2019-02-19T20:51:43.377Z,1.80
2019-02-19T20:54:49.787Z,1.80
2019-02-19T20:57:56.389Z,1.50
2019-02-19T21:01:03.842Z,1.90
2019-02-19T21:04:10.273Z,1.90
2019-02-19T21:07:16.715Z,1.73
2019-02-19T21:10:23.143Z,1.90
2019-02-19T21:13:29.508Z,1.60
2019-02-19T21:16:36.036Z,1.50
2019-02-19T21:19:42.594Z,1.83
2019-02-19T21:22:48.936Z,1.73
2019-02-19T21:25:55.492Z,1.47
2019-02-19T21:29:01.991Z,1.50
2019-02-19T21:32:08.331Z,1.40
2019-02-19T21:35:14.621Z,1.70
2019-02-19T21:38:21.146Z,1.35
2019-02-19T21:41:27.713Z,1.42
2019-02-19T21:44:37.184Z,1.50
2019-02-19T21:47:43.381Z,1.43
2019-02-19T21:50:49.709Z,1.63
2019-02-19T21:53:56.321Z,1.40
2019-02-19T21:57:02.641Z,1.10
2019-02-19T22:00:12.123Z,1.27
2019-02-19T22:03:20.133Z,1.30
2019-02-19T22:06:26.605Z,1.50
2019-02-19T22:09:33.093Z,1.57
2019-02-19T22:12:39.420Z,1.60
2019-02-19T22:15:45.665Z,1.80
2019-02-19T22:18:52.034Z,1.40
2019-02-19T22:22:03.889Z,1.60
2019-02-19T22:25:10.313Z,1.70
2019-02-19T22:28:16.700Z,1.50
2019-02-19T22:31:23.148Z,1.60
2019-02-19T22:34:29.497Z,1.60
2019-02-19T22:37:35.822Z,1.70
2019-02-19T22:40:42.159Z,1.27
2019-02-19T22:43:48.577Z,1.40
2019-02-19T22:46:55.006Z,1.30
2019-02-19T22:50:01.321Z,1.63
2019-02-19T22:53:26.639Z,1.77
2019-02-19T22:56:38.757Z,1.90
2019-02-19T22:59:45.124Z,1.80
2019-02-19T23:02:51.485Z,1.63
2019-02-19T23:05:57.785Z,1.93
2019-02-19T23:09:05.752Z,1.30
2019-02-19T23:12:13.260Z,1.77
2019-02-19T23:15:19.686Z,1.90
2019-02-19T23:18:26.134Z,1.50
2019-02-19T23:21:32.548Z,1.85
2019-02-19T23:24:38.964Z,1.60
2019-02-19T23:27:45.370Z,1.70
2019-02-19T23:30:51.875Z,2.00
2019-02-19T23:33:58.313Z,1.75
2019-02-19T23:37:24.951Z,2.10
2019-02-19T23:40:31.257Z,1.50
2019-02-19T23:43:37.501Z,1.57
2019-02-19T23:46:44.087Z,1.70
2019-02-19T23:49:50.433Z,2.20
2019-02-19T23:52:56.802Z,1.80
2019-02-19T23:56:03.094Z,1.80
2019-02-19T23:59:09.380Z,2.13
